createdAt,value
2023-02-26T00:00:44.161Z,0.25
2023-02-26T00:03:11.214Z,0.23
2023-02-26T00:05:37.872Z,0.26
2023-02-26T00:08:06.109Z,0.27
2023-02-26T00:10:32.717Z,0.12
2023-02-26T00:12:59.524Z,0.13
2023-02-26T00:15:26.969Z,0.15
2023-02-26T00:18:04.695Z,0.06
2023-02-26T00:20:31.408Z,0.05
2023-02-26T00:22:58.058Z,-0.10
2023-02-26T00:25:24.568Z,-0.08
2023-02-26T00:27:51.337Z,-0.08
2023-02-26T00:30:18.098Z,-0.05
2023-02-26T00:32:44.979Z,-0.15
2023-02-26T00:35:13.733Z,-0.16
2023-02-26T00:37:48.770Z,-0.15
2023-02-26T00:40:23.268Z,-0.21
2023-02-26T00:42:49.940Z,-0.31
2023-02-26T00:45:16.746Z,-0.26
2023-02-26T00:47:54.355Z,-0.37
2023-02-26T00:50:25.205Z,-0.31
2023-02-26T00:53:08.899Z,-0.26
2023-02-26T00:55:35.479Z,-0.24
2023-02-26T00:58:02.070Z,-0.22
2023-02-26T01:00:29.541Z,-0.18
2023-02-26T01:02:56.758Z,-0.16
2023-02-26T01:05:23.481Z,-0.15
2023-02-26T01:07:59.157Z,-0.26
2023-02-26T01:10:26.037Z,-0.26
2023-02-26T01:12:52.864Z,-0.30
2023-02-26T01:15:19.621Z,-0.35
2023-02-26T01:18:07.786Z,-0.43
2023-02-26T01:20:41.753Z,-0.58
2023-02-26T01:23:12.932Z,-0.56
2023-02-26T01:25:41.382Z,-0.59
2023-02-26T01:28:08.369Z,-0.65
2023-02-26T01:30:35.097Z,-0.65
2023-02-26T01:33:07.385Z,-0.74
2023-02-26T01:35:48.278Z,-0.73
2023-02-26T01:38:20.772Z,-0.81
2023-02-26T01:41:05.788Z,-0.81
2023-02-26T01:43:45.039Z,-0.86
2023-02-26T01:46:19.196Z,-0.95
2023-02-26T01:48:49.113Z,-0.97
2023-02-26T01:51:15.633Z,-0.95
2023-02-26T01:53:42.163Z,-1.04
2023-02-26T01:56:14.154Z,-1.07
2023-02-26T01:58:40.690Z,-1.05
2023-02-26T02:01:08.200Z,-1.09
2023-02-26T02:03:35.962Z,-1.10
2023-02-26T02:06:16.763Z,-1.13
2023-02-26T02:08:43.388Z,-1.22
2023-02-26T02:11:10.451Z,-1.23
2023-02-26T02:13:40.111Z,-1.24
2023-02-26T02:16:16.940Z,-1.28
2023-02-26T02:18:47.495Z,-1.29
2023-02-26T02:21:13.993Z,-1.29
2023-02-26T02:23:47.625Z,-1.28
2023-02-26T02:26:14.252Z,-1.36
2023-02-26T02:28:58.909Z,-1.34
2023-02-26T02:31:25.910Z,-1.39
2023-02-26T02:33:52.436Z,-1.34
2023-02-26T02:36:28.961Z,-1.38
2023-02-26T02:38:56.865Z,-1.36
2023-02-26T02:41:43.636Z,-1.35
2023-02-26T02:44:12.041Z,-1.35
2023-02-26T02:46:39.345Z,-1.41
2023-02-26T02:49:07.543Z,-1.43
2023-02-26T02:51:34.905Z,-1.44
2023-02-26T02:54:01.415Z,-1.46
2023-02-26T02:56:47.577Z,-1.50
2023-02-26T02:59:23.309Z,-1.52
2023-02-26T03:01:51.472Z,-1.56
2023-02-26T03:04:18.001Z,-1.59
2023-02-26T03:06:46.845Z,-1.60
2023-02-26T03:09:14.120Z,-1.66
2023-02-26T03:11:41.113Z,-1.68
2023-02-26T03:14:10.334Z,-1.67
2023-02-26T03:16:56.230Z,-1.60
2023-02-26T03:19:41.123Z,-1.50
2023-02-26T03:22:10.233Z,-1.44
2023-02-26T03:25:09.342Z,-1.39
2023-02-26T03:27:36.184Z,-1.39
2023-02-26T03:30:05.531Z,-1.45
2023-02-26T03:32:51.617Z,-1.50
2023-02-26T03:35:33.723Z,-1.53
2023-02-26T03:38:01.762Z,-1.57
2023-02-26T03:40:30.526Z,-1.61
2023-02-26T03:43:00.329Z,-1.61
2023-02-26T03:45:28.308Z,-1.67
2023-02-26T03:47:55.314Z,-1.75
2023-02-26T03:50:27.602Z,-1.81
2023-02-26T03:53:15.825Z,-1.82
2023-02-26T03:55:55.338Z,-1.86
2023-02-26T03:58:43.014Z,-1.85
2023-02-26T04:01:36.511Z,-1.88
2023-02-26T04:04:04.688Z,-1.91
2023-02-26T04:06:31.524Z,-1.94
2023-02-26T04:08:58.166Z,-1.96
2023-02-26T04:11:25.858Z,-2.02
2023-02-26T04:13:52.627Z,-2.03
2023-02-26T04:16:19.347Z,-2.07
2023-02-26T04:18:46.365Z,-2.12
2023-02-26T04:21:16.949Z,-2.15
2023-02-26T04:23:43.557Z,-2.13
2023-02-26T04:26:10.346Z,-2.19
2023-02-26T04:28:40.069Z,-2.22
2023-02-26T04:31:07.012Z,-2.19
2023-02-26T04:33:33.843Z,-2.17
2023-02-26T04:36:00.879Z,-2.15
2023-02-26T04:38:27.547Z,-2.03
2023-02-26T04:40:54.393Z,-2.00
2023-02-26T04:43:21.342Z,-2.01
2023-02-26T04:45:58.851Z,-1.97
2023-02-26T04:48:25.499Z,-1.98
2023-02-26T04:50:52.073Z,-2.07
2023-02-26T04:53:19.033Z,-2.13
2023-02-26T04:55:47.524Z,-2.14
2023-02-26T04:58:14.075Z,-2.15
2023-02-26T05:00:40.657Z,-2.19
2023-02-26T05:03:07.381Z,-2.24
2023-02-26T05:05:33.929Z,-2.30
2023-02-26T05:08:00.489Z,-2.34
2023-02-26T05:10:27.129Z,-2.34
2023-02-26T05:12:53.667Z,-2.37
2023-02-26T05:15:20.293Z,-2.38
2023-02-26T05:17:46.814Z,-2.39
2023-02-26T05:20:13.457Z,-2.42
2023-02-26T05:22:40.038Z,-2.46
2023-02-26T05:25:07.585Z,-2.49
2023-02-26T05:27:34.449Z,-2.53
2023-02-26T05:30:01.000Z,-2.57
2023-02-26T05:32:27.664Z,-2.57
2023-02-26T05:34:56.424Z,-2.56
2023-02-26T05:37:22.973Z,-2.56
2023-02-26T05:39:49.556Z,-2.56
2023-02-26T05:42:17.204Z,-2.53
2023-02-26T05:44:43.751Z,-2.53
2023-02-26T05:47:10.286Z,-2.55
2023-02-26T05:49:37.288Z,-2.56
2023-02-26T05:52:04.121Z,-2.59
2023-02-26T05:54:30.682Z,-2.60
2023-02-26T05:56:57.233Z,-2.61
2023-02-26T05:59:23.793Z,-2.61
2023-02-26T06:01:50.383Z,-2.63
2023-02-26T06:04:17.493Z,-2.63
2023-02-26T06:06:44.054Z,-2.65
2023-02-26T06:09:10.599Z,-2.66
2023-02-26T06:11:38.572Z,-2.63
2023-02-26T06:14:05.214Z,-2.58
2023-02-26T06:16:33.023Z,-2.58
2023-02-26T06:18:59.578Z,-2.58
2023-02-26T06:21:26.614Z,-2.56
2023-02-26T06:23:53.154Z,-2.54
2023-02-26T06:26:20.621Z,-2.46
2023-02-26T06:28:48.663Z,-2.41
2023-02-26T06:31:15.301Z,-2.36
2023-02-26T06:33:41.907Z,-2.28
2023-02-26T06:36:08.557Z,-2.31
2023-02-26T06:38:35.150Z,-2.25
2023-02-26T06:41:01.664Z,-2.16
2023-02-26T06:43:28.210Z,-2.13
2023-02-26T06:45:57.284Z,-2.04
2023-02-26T06:48:23.882Z,-2.01
2023-02-26T06:50:50.379Z,-1.94
2023-02-26T06:53:16.956Z,-2.04
2023-02-26T06:55:44.503Z,-2.00
2023-02-26T06:58:11.095Z,-1.91
2023-02-26T07:00:38.115Z,-1.83
2023-02-26T07:03:04.822Z,-1.83
2023-02-26T07:05:31.890Z,-1.77
2023-02-26T07:07:58.553Z,-1.66
2023-02-26T07:10:25.460Z,-1.53
2023-02-26T07:12:52.045Z,-1.46
2023-02-26T07:15:18.594Z,-1.30
2023-02-26T07:17:45.160Z,-1.13
2023-02-26T07:20:12.471Z,-1.00
2023-02-26T07:22:39.033Z,-0.89
2023-02-26T07:25:06.026Z,-0.80
2023-02-26T07:27:33.493Z,-0.72
2023-02-26T07:30:00.463Z,-0.76
2023-02-26T07:32:27.093Z,-0.94
2023-02-26T07:34:53.693Z,-0.86
2023-02-26T07:37:20.237Z,-0.98
2023-02-26T07:39:46.765Z,-0.94
2023-02-26T07:42:13.347Z,-0.94
2023-02-26T07:44:41.992Z,-0.93
2023-02-26T07:47:08.598Z,-0.74
2023-02-26T07:49:35.648Z,-0.81
2023-02-26T07:52:02.296Z,-0.56
2023-02-26T07:54:28.849Z,-0.59
2023-02-26T07:56:55.401Z,-0.65
2023-02-26T07:59:22.012Z,-0.46
2023-02-26T08:01:49.043Z,-0.36
2023-02-26T08:04:15.683Z,-0.18
2023-02-26T08:06:42.253Z,-0.13
2023-02-26T08:09:08.823Z,-0.19
2023-02-26T08:11:39.760Z,-0.16
2023-02-26T08:14:06.960Z,-0.12
2023-02-26T08:16:33.541Z,0.04
2023-02-26T08:19:00.104Z,-0.13
2023-02-26T08:21:27.004Z,-0.27
2023-02-26T08:23:54.338Z,-0.24
2023-02-26T08:26:20.909Z,-0.31
2023-02-26T08:28:48.366Z,-0.35
2023-02-26T08:31:15.167Z,-0.43
2023-02-26T08:33:42.264Z,-0.39
2023-02-26T08:36:08.972Z,-0.05
2023-02-26T08:38:35.534Z,0.22
2023-02-26T08:41:02.099Z,0.30
2023-02-26T08:43:29.906Z,0.60
2023-02-26T08:45:56.825Z,0.69
2023-02-26T08:48:23.628Z,0.74
2023-02-26T08:50:50.343Z,1.07
2023-02-26T08:53:16.939Z,1.27
2023-02-26T08:55:45.019Z,1.43
2023-02-26T08:58:11.546Z,0.98
2023-02-26T09:00:38.083Z,1.15
2023-02-26T09:03:04.660Z,1.03
2023-02-26T09:05:31.182Z,0.56
2023-02-26T09:07:57.720Z,0.69
2023-02-26T09:10:24.259Z,0.82
2023-02-26T09:12:50.837Z,0.82
2023-02-26T09:15:18.181Z,0.70
2023-02-26T09:17:45.374Z,0.88
2023-02-26T09:20:12.457Z,0.71
2023-02-26T09:22:39.048Z,0.74
2023-02-26T09:25:06.037Z,0.69
2023-02-26T09:27:32.740Z,0.74
2023-02-26T09:29:59.303Z,0.57
2023-02-26T09:32:27.078Z,0.50
2023-02-26T09:34:53.909Z,0.62
2023-02-26T09:37:20.495Z,0.40
2023-02-26T09:39:47.055Z,0.35
2023-02-26T09:42:24.356Z,0.30
2023-02-26T09:44:51.585Z,0.22
2023-02-26T09:47:31.859Z,0.42
2023-02-26T09:50:09.847Z,0.34
2023-02-26T09:52:38.108Z,0.47
2023-02-26T09:55:21.239Z,0.58
2023-02-26T09:57:48.008Z,0.63
2023-02-26T10:00:14.947Z,0.72
2023-02-26T10:02:54.587Z,0.91
2023-02-26T10:05:26.901Z,1.06
2023-02-26T10:07:58.248Z,1.05
2023-02-26T10:10:48.201Z,1.03
2023-02-26T10:13:26.004Z,1.30
2023-02-26T10:15:52.558Z,1.36
2023-02-26T10:18:27.166Z,1.58
2023-02-26T10:20:58.954Z,1.78
2023-02-26T10:23:31.814Z,1.97
2023-02-26T10:26:02.212Z,2.01
2023-02-26T10:28:28.694Z,2.18
2023-02-26T10:30:59.461Z,2.11
2023-02-26T10:33:29.690Z,2.27
2023-02-26T10:35:59.421Z,2.37
2023-02-26T10:38:26.899Z,2.15
2023-02-26T10:40:54.968Z,2.52
2023-02-26T10:43:32.688Z,2.51
2023-02-26T10:46:03.582Z,2.40
2023-02-26T10:48:49.445Z,2.38
2023-02-26T10:51:20.074Z,2.35
2023-02-26T10:53:51.304Z,2.44
2023-02-26T10:56:21.912Z,2.14
2023-02-26T10:58:48.577Z,2.23
2023-02-26T11:01:16.986Z,2.03
2023-02-26T11:03:44.620Z,1.95
2023-02-26T11:06:12.987Z,1.95
2023-02-26T11:08:43.490Z,2.30
2023-02-26T11:11:10.097Z,2.42
2023-02-26T11:13:37.616Z,2.88
2023-02-26T11:16:14.837Z,3.05
2023-02-26T11:18:43.911Z,3.51
2023-02-26T11:21:14.212Z,3.79
2023-02-26T11:23:40.777Z,4.24
2023-02-26T11:26:08.493Z,4.47
2023-02-26T11:28:36.391Z,4.13
2023-02-26T11:31:07.019Z,4.10
2023-02-26T11:33:36.505Z,4.37
2023-02-26T11:36:03.358Z,4.40
2023-02-26T11:38:29.965Z,4.25
2023-02-26T11:40:57.848Z,4.17
2023-02-26T11:43:26.050Z,4.21
2023-02-26T11:45:53.979Z,3.98
2023-02-26T11:48:23.038Z,4.22
2023-02-26T11:50:50.268Z,4.08
2023-02-26T11:53:18.971Z,3.68
2023-02-26T11:55:48.104Z,3.73
2023-02-26T11:58:22.840Z,3.44
2023-02-26T12:00:50.120Z,3.43
2023-02-26T12:03:24.157Z,3.57
2023-02-26T12:05:53.346Z,3.51
2023-02-26T12:08:26.112Z,3.31
2023-02-26T12:10:57.652Z,3.37
2023-02-26T12:13:26.812Z,3.24
2023-02-26T12:16:17.043Z,3.06
2023-02-26T12:18:53.589Z,2.74
2023-02-26T12:21:38.944Z,2.72
2023-02-26T12:24:09.521Z,2.91
2023-02-26T12:26:40.510Z,2.99
2023-02-26T12:29:26.234Z,2.77
2023-02-26T12:32:05.888Z,2.83
2023-02-26T12:34:51.374Z,2.85
2023-02-26T12:37:36.680Z,2.81
2023-02-26T12:40:22.049Z,2.79
2023-02-26T12:42:51.861Z,3.01
2023-02-26T12:45:41.434Z,3.21
2023-02-26T12:48:13.696Z,3.55
2023-02-26T12:50:49.100Z,3.22
2023-02-26T12:53:34.835Z,3.08
2023-02-26T12:56:16.427Z,3.14
2023-02-26T12:58:46.085Z,3.30
2023-02-26T13:01:24.990Z,3.38
2023-02-26T13:03:54.746Z,3.70
2023-02-26T13:06:40.064Z,3.89
2023-02-26T13:09:19.566Z,3.93
2023-02-26T13:11:59.884Z,3.70
2023-02-26T13:14:33.375Z,3.44
2023-02-26T13:17:14.777Z,3.54
2023-02-26T13:19:43.461Z,3.65
2023-02-26T13:22:14.123Z,3.54
2023-02-26T13:24:42.251Z,3.53
2023-02-26T13:27:09.281Z,3.34
2023-02-26T13:29:37.057Z,3.28
2023-02-26T13:32:13.832Z,3.33
2023-02-26T13:35:00.305Z,3.38
2023-02-26T13:37:27.249Z,3.18
2023-02-26T13:39:59.570Z,2.86
2023-02-26T13:42:26.633Z,3.04
2023-02-26T13:45:02.368Z,3.04
2023-02-26T13:47:34.896Z,3.26
2023-02-26T13:50:20.354Z,3.12
2023-02-26T13:52:54.040Z,2.69
2023-02-26T13:55:39.107Z,2.76
2023-02-26T13:58:16.554Z,2.34
2023-02-26T14:00:47.720Z,2.42
2023-02-26T14:03:17.361Z,2.43
2023-02-26T14:05:46.648Z,2.30
2023-02-26T14:08:27.522Z,2.33
2023-02-26T14:11:03.040Z,2.33
2023-02-26T14:13:39.321Z,2.64
2023-02-26T14:16:21.054Z,2.88
2023-02-26T14:18:47.534Z,2.97
2023-02-26T14:21:32.904Z,2.79
2023-02-26T14:24:03.352Z,2.54
2023-02-26T14:26:32.294Z,2.56
2023-02-26T14:29:08.244Z,2.65
2023-02-26T14:31:50.320Z,2.66
2023-02-26T14:34:22.309Z,2.59
2023-02-26T14:36:49.850Z,2.69
2023-02-26T14:39:25.573Z,2.82
2023-02-26T14:41:53.544Z,2.99
2023-02-26T14:44:24.256Z,3.00
2023-02-26T14:46:50.916Z,3.07
2023-02-26T14:49:28.671Z,3.08
2023-02-26T14:52:24.685Z,2.78
2023-02-26T14:55:00.767Z,2.70
2023-02-26T14:57:33.549Z,2.68
2023-02-26T15:00:13.392Z,2.51
2023-02-26T15:02:52.712Z,2.76
2023-02-26T15:05:28.459Z,2.60
2023-02-26T15:07:59.591Z,2.55
2023-02-26T15:10:45.029Z,2.37
2023-02-26T15:13:14.261Z,1.91
2023-02-26T15:16:04.125Z,1.91
2023-02-26T15:18:46.203Z,1.90
2023-02-26T15:21:48.452Z,1.89
2023-02-26T15:24:16.772Z,1.86
2023-02-26T15:26:51.668Z,1.72
2023-02-26T15:29:18.230Z,1.60
2023-02-26T15:31:53.409Z,1.66
2023-02-26T15:34:20.873Z,1.66
2023-02-26T15:36:53.237Z,1.68
2023-02-26T15:39:20.482Z,1.72
2023-02-26T15:41:47.740Z,1.77
2023-02-26T15:44:15.569Z,1.74
2023-02-26T15:46:44.589Z,1.83
2023-02-26T15:49:17.062Z,1.87
2023-02-26T15:51:45.054Z,1.88
2023-02-26T15:54:15.554Z,1.83
2023-02-26T15:56:42.430Z,1.71
2023-02-26T15:59:18.095Z,1.58
2023-02-26T16:01:44.696Z,1.40
2023-02-26T16:04:12.984Z,1.28
2023-02-26T16:06:45.993Z,1.15
2023-02-26T16:09:17.134Z,1.23
2023-02-26T16:11:44.037Z,1.22
2023-02-26T16:14:13.705Z,1.17
2023-02-26T16:16:47.329Z,1.20
2023-02-26T16:19:33.927Z,1.13
2023-02-26T16:22:01.951Z,1.17
2023-02-26T16:24:29.130Z,1.35
2023-02-26T16:26:56.948Z,1.21
2023-02-26T16:29:27.693Z,1.21
2023-02-26T16:31:55.370Z,1.19
2023-02-26T16:34:28.479Z,1.16
2023-02-26T16:36:55.032Z,1.18
2023-02-26T16:39:25.527Z,1.00
2023-02-26T16:42:09.444Z,1.08
2023-02-26T16:44:38.079Z,0.90
2023-02-26T16:47:04.615Z,0.75
2023-02-26T16:49:32.498Z,0.72
2023-02-26T16:51:59.562Z,0.65
2023-02-26T16:54:36.060Z,0.64
2023-02-26T16:57:08.585Z,0.69
2023-02-26T16:59:36.015Z,0.63
2023-02-26T17:02:10.424Z,0.60
2023-02-26T17:04:37.432Z,0.52
2023-02-26T17:07:22.822Z,0.41
2023-02-26T17:09:51.084Z,0.42
2023-02-26T17:12:21.716Z,0.40
2023-02-26T17:14:53.073Z,0.35
2023-02-26T17:17:20.117Z,0.34
2023-02-26T17:19:46.769Z,0.27
2023-02-26T17:22:14.243Z,0.29
2023-02-26T17:24:41.663Z,0.24
2023-02-26T17:27:08.309Z,0.22
2023-02-26T17:29:37.363Z,0.18
2023-02-26T17:32:17.806Z,0.19
2023-02-26T17:34:44.537Z,0.19
2023-02-26T17:37:11.931Z,0.19
2023-02-26T17:39:38.491Z,0.14
2023-02-26T17:42:09.785Z,0.10
2023-02-26T17:44:36.417Z,0.06
2023-02-26T17:47:02.953Z,0.08
2023-02-26T17:49:29.500Z,0.13
2023-02-26T17:51:56.073Z,0.17
2023-02-26T17:54:22.619Z,0.06
2023-02-26T17:56:49.952Z,0.02
2023-02-26T17:59:16.618Z,-0.07
2023-02-26T18:01:43.175Z,-0.05
2023-02-26T18:04:10.037Z,-0.03
2023-02-26T18:06:37.204Z,-0.15
2023-02-26T18:09:06.197Z,-0.18
2023-02-26T18:11:32.823Z,-0.08
2023-02-26T18:13:59.436Z,-0.15
2023-02-26T18:16:32.117Z,-0.28
2023-02-26T18:18:59.604Z,-0.23
2023-02-26T18:21:27.357Z,-0.28
2023-02-26T18:23:57.633Z,-0.31
2023-02-26T18:26:25.667Z,-0.33
2023-02-26T18:28:52.439Z,-0.34
2023-02-26T18:31:20.091Z,-0.39
2023-02-26T18:33:46.799Z,-0.42
2023-02-26T18:36:29.925Z,-0.44
2023-02-26T18:39:01.558Z,-0.45
2023-02-26T18:41:29.104Z,-0.44
2023-02-26T18:43:55.864Z,-0.41
2023-02-26T18:46:22.605Z,-0.46
2023-02-26T18:48:49.189Z,-0.40
2023-02-26T18:51:15.767Z,-0.49
2023-02-26T18:53:42.269Z,-0.47
2023-02-26T18:56:08.838Z,-0.38
2023-02-26T18:58:35.409Z,-0.55
2023-02-26T19:01:05.387Z,-0.51
2023-02-26T19:03:31.972Z,-0.58
2023-02-26T19:05:59.361Z,-0.48
2023-02-26T19:08:25.954Z,-0.50
2023-02-26T19:10:52.923Z,-0.60
2023-02-26T19:13:19.521Z,-0.56
2023-02-26T19:15:46.238Z,-0.54
2023-02-26T19:18:12.772Z,-0.60
2023-02-26T19:20:39.305Z,-0.69
2023-02-26T19:23:06.893Z,-0.71
2023-02-26T19:25:34.065Z,-0.74
2023-02-26T19:28:00.636Z,-0.69
2023-02-26T19:30:27.328Z,-0.72
2023-02-26T19:32:54.707Z,-0.68
2023-02-26T19:35:21.649Z,-0.67
2023-02-26T19:37:48.289Z,-0.79
2023-02-26T19:40:19.650Z,-0.74
2023-02-26T19:42:46.445Z,-0.86
2023-02-26T19:45:14.189Z,-0.84
2023-02-26T19:47:40.988Z,-0.82
2023-02-26T19:50:08.375Z,-0.85
2023-02-26T19:52:37.740Z,-0.84
2023-02-26T19:55:05.364Z,-0.91
2023-02-26T19:57:32.245Z,-0.83
2023-02-26T19:59:59.736Z,-0.88
2023-02-26T20:02:26.577Z,-0.81
2023-02-26T20:04:53.602Z,-0.83
2023-02-26T20:07:20.229Z,-0.86
2023-02-26T20:09:48.786Z,-0.84
2023-02-26T20:12:16.186Z,-0.86
2023-02-26T20:14:43.795Z,-0.91
2023-02-26T20:17:10.421Z,-0.93
2023-02-26T20:19:36.988Z,-1.00
2023-02-26T20:22:03.649Z,-1.06
2023-02-26T20:24:32.887Z,-1.05
2023-02-26T20:27:00.407Z,-1.01
2023-02-26T20:29:27.018Z,-0.95
2023-02-26T20:31:53.968Z,-1.02
2023-02-26T20:34:20.681Z,-0.89
2023-02-26T20:36:54.564Z,-0.90
2023-02-26T20:39:22.238Z,-1.00
2023-02-26T20:41:48.820Z,-0.95
2023-02-26T20:44:15.490Z,-0.97
2023-02-26T20:46:42.042Z,-0.94
2023-02-26T20:49:11.552Z,-1.04
2023-02-26T20:51:39.311Z,-0.98
2023-02-26T20:54:05.882Z,-0.95
2023-02-26T20:56:32.420Z,-1.01
2023-02-26T20:58:59.066Z,-0.96
2023-02-26T21:01:26.254Z,-1.06
2023-02-26T21:03:54.258Z,-1.01
2023-02-26T21:06:20.786Z,-1.04
2023-02-26T21:08:47.331Z,-1.06
2023-02-26T21:11:14.063Z,-1.13
2023-02-26T21:13:40.670Z,-1.18
2023-02-26T21:16:07.234Z,-1.29
2023-02-26T21:18:34.205Z,-1.31
2023-02-26T21:21:02.917Z,-1.22
2023-02-26T21:23:30.727Z,-1.23
2023-02-26T21:25:57.327Z,-1.25
2023-02-26T21:28:23.877Z,-1.21
2023-02-26T21:30:53.744Z,-1.26
2023-02-26T21:33:20.375Z,-1.29
2023-02-26T21:35:50.609Z,-1.16
2023-02-26T21:38:18.914Z,-1.19
2023-02-26T21:40:45.962Z,-1.08
2023-02-26T21:43:12.566Z,-0.98
2023-02-26T21:45:39.190Z,-0.99
2023-02-26T21:48:05.795Z,-1.04
2023-02-26T21:50:32.766Z,-1.09
2023-02-26T21:52:59.351Z,-1.07
2023-02-26T21:55:25.928Z,-1.10
2023-02-26T21:57:52.457Z,-1.09
2023-02-26T22:00:19.291Z,-1.11
2023-02-26T22:02:46.025Z,-1.11
2023-02-26T22:05:12.621Z,-1.17
2023-02-26T22:07:39.129Z,-1.15
2023-02-26T22:10:06.299Z,-1.14
2023-02-26T22:12:33.133Z,-1.31
2023-02-26T22:14:59.680Z,-1.21
2023-02-26T22:17:26.208Z,-1.30
2023-02-26T22:19:53.075Z,-1.25
2023-02-26T22:22:19.693Z,-1.41
2023-02-26T22:24:46.244Z,-1.36
2023-02-26T22:27:12.820Z,-1.29
2023-02-26T22:29:39.478Z,-1.28
2023-02-26T22:32:07.326Z,-1.37
2023-02-26T22:34:34.342Z,-1.38
2023-02-26T22:37:01.119Z,-1.46
2023-02-26T22:39:27.817Z,-1.38
2023-02-26T22:41:54.377Z,-1.42
2023-02-26T22:44:20.975Z,-1.47
2023-02-26T22:46:47.573Z,-1.53
2023-02-26T22:49:14.256Z,-1.46
2023-02-26T22:51:40.841Z,-1.46
2023-02-26T22:54:07.352Z,-1.50
2023-02-26T22:56:34.037Z,-1.47
2023-02-26T22:59:00.643Z,-1.61
2023-02-26T23:01:29.908Z,-1.57
2023-02-26T23:03:56.489Z,-1.46
2023-02-26T23:06:23.026Z,-1.44
2023-02-26T23:08:49.561Z,-1.54
2023-02-26T23:11:16.113Z,-1.65
2023-02-26T23:13:42.675Z,-1.67
2023-02-26T23:16:10.135Z,-1.64
2023-02-26T23:18:37.259Z,-1.69
2023-02-26T23:21:04.560Z,-1.64
2023-02-26T23:23:31.166Z,-1.57
2023-02-26T23:25:57.782Z,-1.58
2023-02-26T23:28:25.411Z,-1.68
2023-02-26T23:30:52.591Z,-1.60
2023-02-26T23:33:19.284Z,-1.57
2023-02-26T23:35:45.829Z,-1.69
2023-02-26T23:38:12.327Z,-1.69
2023-02-26T23:40:38.873Z,-1.65
2023-02-26T23:43:05.480Z,-1.74
2023-02-26T23:45:32.035Z,-1.64
2023-02-26T23:47:58.564Z,-1.65
2023-02-26T23:50:25.130Z,-1.71
2023-02-26T23:52:51.652Z,-1.74
2023-02-26T23:55:18.603Z,-1.85
2023-02-26T23:57:45.147Z,-1.82
